sensor_id;sensor_type;location;lat;lon;timestamp;P1;durP1;ratioP1;P2;durP2;ratioP2
66487;SDS011;53304;54.550;18.526;2023-07-13T00:00:52;5.40;;;2.10;;
66487;SDS011;53304;54.550;18.526;2023-07-13T00:03:17;4.13;;;1.98;;
66487;SDS011;53304;54.550;18.526;2023-07-13T00:05:45;5.05;;;2.10;;
66487;SDS011;53304;54.550;18.526;2023-07-13T00:08:11;6.43;;;2.65;;
66487;SDS011;53304;54.550;18.526;2023-07-13T00:10:41;9.02;;;2.70;;
66487;SDS011;53304;54.550;18.526;2023-07-13T00:13:11;6.22;;;2.35;;
66487;SDS011;53304;54.550;18.526;2023-07-13T00:15:41;5.70;;;2.25;;
66487;SDS011;53304;54.550;18.526;2023-07-13T00:18:07;5.40;;;2.40;;
66487;SDS011;53304;54.550;18.526;2023-07-13T00:20:35;4.60;;;2.33;;
66487;SDS011;53304;54.550;18.526;2023-07-13T00:23:03;5.30;;;2.53;;
66487;SDS011;53304;54.550;18.526;2023-07-13T00:25:33;4.75;;;2.00;;
66487;SDS011;53304;54.550;18.526;2023-07-13T00:28:00;4.55;;;2.22;;
66487;SDS011;53304;54.550;18.526;2023-07-13T00:30:25;4.13;;;2.10;;
66487;SDS011;53304;54.550;18.526;2023-07-13T00:32:53;5.43;;;2.38;;
66487;SDS011;53304;54.550;18.526;2023-07-13T00:35:25;5.90;;;2.60;;
66487;SDS011;53304;54.550;18.526;2023-07-13T00:37:58;4.38;;;2.28;;
66487;SDS011;53304;54.550;18.526;2023-07-13T00:40:26;6.57;;;2.28;;
66487;SDS011;53304;54.550;18.526;2023-07-13T00:42:56;8.00;;;2.13;;
66487;SDS011;53304;54.550;18.526;2023-07-13T00:47:54;4.80;;;2.30;;
66487;SDS011;53304;54.550;18.526;2023-07-13T00:50:20;5.53;;;2.10;;
66487;SDS011;53304;54.550;18.526;2023-07-13T00:52:49;6.38;;;2.00;;
66487;SDS011;53304;54.550;18.526;2023-07-13T00:55:23;5.13;;;1.90;;
66487;SDS011;53304;54.550;18.526;2023-07-13T00:57:48;4.85;;;2.08;;
66487;SDS011;53304;54.550;18.526;2023-07-13T01:03:36;4.00;;;2.00;;
66487;SDS011;53304;54.550;18.526;2023-07-13T01:06:02;4.40;;;2.28;;
66487;SDS011;53304;54.550;18.526;2023-07-13T01:08:30;5.82;;;2.38;;
66487;SDS011;53304;54.550;18.526;2023-07-13T01:10:58;12.30;;;2.20;;
66487;SDS011;53304;54.550;18.526;2023-07-13T01:13:28;6.50;;;2.28;;
66487;SDS011;53304;54.550;18.526;2023-07-13T01:15:55;5.90;;;2.20;;
66487;SDS011;53304;54.550;18.526;2023-07-13T01:18:23;5.57;;;2.00;;
66487;SDS011;53304;54.550;18.526;2023-07-13T01:21:00;5.50;;;1.98;;
66487;SDS011;53304;54.550;18.526;2023-07-13T01:23:27;5.63;;;1.80;;
66487;SDS011;53304;54.550;18.526;2023-07-13T01:25:55;5.85;;;2.00;;
66487;SDS011;53304;54.550;18.526;2023-07-13T01:28:23;4.15;;;1.80;;
66487;SDS011;53304;54.550;18.526;2023-07-13T01:30:52;4.60;;;2.20;;
66487;SDS011;53304;54.550;18.526;2023-07-13T01:33:23;6.05;;;2.03;;
66487;SDS011;53304;54.550;18.526;2023-07-13T01:35:49;4.80;;;1.85;;
66487;SDS011;53304;54.550;18.526;2023-07-13T01:38:20;8.10;;;2.30;;
66487;SDS011;53304;54.550;18.526;2023-07-13T01:40:47;4.72;;;2.20;;
66487;SDS011;53304;54.550;18.526;2023-07-13T01:43:13;4.93;;;2.03;;
66487;SDS011;53304;54.550;18.526;2023-07-13T01:45:38;4.75;;;1.70;;
66487;SDS011;53304;54.550;18.526;2023-07-13T01:48:06;3.47;;;2.00;;
66487;SDS011;53304;54.550;18.526;2023-07-13T01:50:32;4.80;;;2.13;;
66487;SDS011;53304;54.550;18.526;2023-07-13T01:52:58;2.90;;;1.63;;
66487;SDS011;53304;54.550;18.526;2023-07-13T01:55:23;5.32;;;1.98;;
66487;SDS011;53304;54.550;18.526;2023-07-13T01:57:51;6.00;;;2.00;;
66487;SDS011;53304;54.550;18.526;2023-07-13T02:00:21;4.63;;;2.00;;
66487;SDS011;53304;54.550;18.526;2023-07-13T02:02:47;7.60;;;2.65;;
66487;SDS011;53304;54.550;18.526;2023-07-13T02:05:15;5.47;;;2.20;;
66487;SDS011;53304;54.550;18.526;2023-07-13T02:07:46;4.47;;;2.05;;
66487;SDS011;53304;54.550;18.526;2023-07-13T02:10:11;4.95;;;1.92;;
66487;SDS011;53304;54.550;18.526;2023-07-13T02:12:40;3.58;;;1.90;;
66487;SDS011;53304;54.550;18.526;2023-07-13T02:15:06;4.05;;;2.03;;
66487;SDS011;53304;54.550;18.526;2023-07-13T02:17:34;6.60;;;2.10;;
66487;SDS011;53304;54.550;18.526;2023-07-13T02:20:00;5.53;;;2.42;;
66487;SDS011;53304;54.550;18.526;2023-07-13T02:22:25;8.18;;;1.95;;
66487;SDS011;53304;54.550;18.526;2023-07-13T02:24:55;4.05;;;2.20;;
66487;SDS011;53304;54.550;18.526;2023-07-13T02:27:23;3.15;;;1.85;;
66487;SDS011;53304;54.550;18.526;2023-07-13T02:29:49;4.15;;;2.10;;
66487;SDS011;53304;54.550;18.526;2023-07-13T02:32:18;6.05;;;2.10;;
66487;SDS011;53304;54.550;18.526;2023-07-13T02:34:49;3.47;;;1.90;;
66487;SDS011;53304;54.550;18.526;2023-07-13T02:37:14;4.45;;;2.17;;
66487;SDS011;53304;54.550;18.526;2023-07-13T02:39:42;5.53;;;2.00;;
66487;SDS011;53304;54.550;18.526;2023-07-13T02:42:07;6.25;;;2.40;;
66487;SDS011;53304;54.550;18.526;2023-07-13T02:44:33;5.22;;;2.15;;
66487;SDS011;53304;54.550;18.526;2023-07-13T02:46:58;5.68;;;2.47;;
66487;SDS011;53304;54.550;18.526;2023-07-13T02:49:26;7.25;;;2.30;;
66487;SDS011;53304;54.550;18.526;2023-07-13T02:51:58;5.00;;;2.10;;
66487;SDS011;53304;54.550;18.526;2023-07-13T02:54:28;5.40;;;2.22;;
66487;SDS011;53304;54.550;18.526;2023-07-13T02:56:54;4.38;;;2.28;;
66487;SDS011;53304;54.550;18.526;2023-07-13T02:59:19;3.65;;;2.17;;
66487;SDS011;53304;54.550;18.526;2023-07-13T03:01:47;5.22;;;2.20;;
66487;SDS011;53304;54.550;18.526;2023-07-13T03:04:12;6.20;;;2.55;;
66487;SDS011;53304;54.550;18.526;2023-07-13T03:06:44;4.50;;;2.13;;
66487;SDS011;53304;54.550;18.526;2023-07-13T03:09:10;6.38;;;2.13;;
66487;SDS011;53304;54.550;18.526;2023-07-13T03:11:38;5.88;;;2.13;;
66487;SDS011;53304;54.550;18.526;2023-07-13T03:14:04;7.05;;;2.50;;
66487;SDS011;53304;54.550;18.526;2023-07-13T03:16:32;3.67;;;2.10;;
66487;SDS011;53304;54.550;18.526;2023-07-13T03:19:02;8.18;;;2.22;;
66487;SDS011;53304;54.550;18.526;2023-07-13T03:21:27;7.95;;;2.50;;
66487;SDS011;53304;54.550;18.526;2023-07-13T03:23:55;4.20;;;2.03;;
66487;SDS011;53304;54.550;18.526;2023-07-13T03:26:23;5.22;;;2.42;;
66487;SDS011;53304;54.550;18.526;2023-07-13T03:28:53;4.78;;;1.80;;
66487;SDS011;53304;54.550;18.526;2023-07-13T03:31:20;5.35;;;2.00;;
66487;SDS011;53304;54.550;18.526;2023-07-13T03:33:47;4.20;;;1.88;;
66487;SDS011;53304;54.550;18.526;2023-07-13T03:36:18;4.38;;;2.25;;
66487;SDS011;53304;54.550;18.526;2023-07-13T03:38:52;5.15;;;2.10;;
66487;SDS011;53304;54.550;18.526;2023-07-13T03:41:23;6.15;;;2.60;;
66487;SDS011;53304;54.550;18.526;2023-07-13T03:43:51;4.97;;;2.08;;
66487;SDS011;53304;54.550;18.526;2023-07-13T03:46:17;5.78;;;2.30;;
66487;SDS011;53304;54.550;18.526;2023-07-13T03:48:48;3.85;;;1.95;;
66487;SDS011;53304;54.550;18.526;2023-07-13T03:51:16;6.13;;;2.30;;
66487;SDS011;53304;54.550;18.526;2023-07-13T03:53:43;6.07;;;2.40;;
66487;SDS011;53304;54.550;18.526;2023-07-13T03:56:11;6.55;;;2.05;;
66487;SDS011;53304;54.550;18.526;2023-07-13T03:58:40;5.43;;;1.90;;
66487;SDS011;53304;54.550;18.526;2023-07-13T04:01:06;3.67;;;1.90;;
66487;SDS011;53304;54.550;18.526;2023-07-13T04:03:36;4.75;;;2.35;;
66487;SDS011;53304;54.550;18.526;2023-07-13T04:06:06;6.00;;;1.70;;
66487;SDS011;53304;54.550;18.526;2023-07-13T04:08:40;5.25;;;2.00;;
66487;SDS011;53304;54.550;18.526;2023-07-13T04:11:07;4.57;;;1.95;;
66487;SDS011;53304;54.550;18.526;2023-07-13T04:13:35;6.63;;;1.98;;
66487;SDS011;53304;54.550;18.526;2023-07-13T04:16:05;9.70;;;2.30;;
66487;SDS011;53304;54.550;18.526;2023-07-13T04:18:35;4.68;;;2.17;;
66487;SDS011;53304;54.550;18.526;2023-07-13T04:21:03;5.43;;;1.90;;
66487;SDS011;53304;54.550;18.526;2023-07-13T04:23:29;7.30;;;2.38;;
66487;SDS011;53304;54.550;18.526;2023-07-13T04:25:56;3.60;;;1.92;;
66487;SDS011;53304;54.550;18.526;2023-07-13T04:28:25;9.45;;;2.55;;
66487;SDS011;53304;54.550;18.526;2023-07-13T04:30:53;6.88;;;1.90;;
66487;SDS011;53304;54.550;18.526;2023-07-13T04:33:19;7.18;;;2.17;;
66487;SDS011;53304;54.550;18.526;2023-07-13T04:35:51;7.35;;;1.80;;
66487;SDS011;53304;54.550;18.526;2023-07-13T04:38:25;6.90;;;2.30;;
66487;SDS011;53304;54.550;18.526;2023-07-13T04:40:56;4.05;;;1.80;;
66487;SDS011;53304;54.550;18.526;2023-07-13T04:43:24;7.90;;;1.90;;
66487;SDS011;53304;54.550;18.526;2023-07-13T04:45:50;3.72;;;1.80;;
66487;SDS011;53304;54.550;18.526;2023-07-13T04:48:20;3.95;;;1.80;;
66487;SDS011;53304;54.550;18.526;2023-07-13T04:50:54;4.85;;;1.77;;
66487;SDS011;53304;54.550;18.526;2023-07-13T04:53:22;3.97;;;1.70;;
66487;SDS011;53304;54.550;18.526;2023-07-13T04:55:48;3.42;;;1.70;;
66487;SDS011;53304;54.550;18.526;2023-07-13T04:58:16;4.05;;;1.70;;
66487;SDS011;53304;54.550;18.526;2023-07-13T05:00:42;4.60;;;2.00;;
66487;SDS011;53304;54.550;18.526;2023-07-13T05:03:09;8.82;;;1.75;;
66487;SDS011;53304;54.550;18.526;2023-07-13T05:05:37;4.53;;;1.75;;
66487;SDS011;53304;54.550;18.526;2023-07-13T05:08:05;4.50;;;1.80;;
66487;SDS011;53304;54.550;18.526;2023-07-13T05:10:35;5.28;;;1.77;;
66487;SDS011;53304;54.550;18.526;2023-07-13T05:13:01;4.38;;;1.58;;
66487;SDS011;53304;54.550;18.526;2023-07-13T05:15:26;3.67;;;1.67;;
66487;SDS011;53304;54.550;18.526;2023-07-13T05:17:54;3.85;;;1.60;;
66487;SDS011;53304;54.550;18.526;2023-07-13T05:20:19;4.45;;;1.90;;
66487;SDS011;53304;54.550;18.526;2023-07-13T05:22:47;4.18;;;1.80;;
66487;SDS011;53304;54.550;18.526;2023-07-13T05:25:13;6.18;;;1.88;;
66487;SDS011;53304;54.550;18.526;2023-07-13T05:27:39;6.88;;;1.92;;
66487;SDS011;53304;54.550;18.526;2023-07-13T05:30:04;4.20;;;1.77;;
66487;SDS011;53304;54.550;18.526;2023-07-13T05:32:38;4.47;;;1.77;;
66487;SDS011;53304;54.550;18.526;2023-07-13T05:35:06;6.18;;;2.00;;
66487;SDS011;53304;54.550;18.526;2023-07-13T05:37:32;3.63;;;1.77;;
66487;SDS011;53304;54.550;18.526;2023-07-13T05:39:59;4.75;;;1.75;;
66487;SDS011;53304;54.550;18.526;2023-07-13T05:42:29;7.03;;;1.90;;
66487;SDS011;53304;54.550;18.526;2023-07-13T05:44:56;4.25;;;1.58;;
66487;SDS011;53304;54.550;18.526;2023-07-13T05:47:24;5.05;;;1.98;;
66487;SDS011;53304;54.550;18.526;2023-07-13T05:49:49;4.82;;;2.08;;
66487;SDS011;53304;54.550;18.526;2023-07-13T05:52:15;11.55;;;1.90;;
66487;SDS011;53304;54.550;18.526;2023-07-13T05:54:40;6.40;;;1.75;;
66487;SDS011;53304;54.550;18.526;2023-07-13T05:57:08;5.05;;;1.67;;
66487;SDS011;53304;54.550;18.526;2023-07-13T05:59:38;5.28;;;1.80;;
66487;SDS011;53304;54.550;18.526;2023-07-13T06:02:04;4.68;;;1.73;;
66487;SDS011;53304;54.550;18.526;2023-07-13T06:04:34;5.78;;;1.95;;
66487;SDS011;53304;54.550;18.526;2023-07-13T06:07:01;7.18;;;2.00;;
66487;SDS011;53304;54.550;18.526;2023-07-13T06:09:29;4.38;;;1.95;;
66487;SDS011;53304;54.550;18.526;2023-07-13T06:11:57;6.53;;;2.40;;
66487;SDS011;53304;54.550;18.526;2023-07-13T06:14:22;9.82;;;2.38;;
66487;SDS011;53304;54.550;18.526;2023-07-13T06:16:48;6.30;;;1.80;;
66487;SDS011;53304;54.550;18.526;2023-07-13T06:19:13;6.47;;;2.17;;
66487;SDS011;53304;54.550;18.526;2023-07-13T06:21:38;8.20;;;2.00;;
66487;SDS011;53304;54.550;18.526;2023-07-13T06:24:08;7.60;;;2.22;;
66487;SDS011;53304;54.550;18.526;2023-07-13T06:26:34;5.25;;;2.15;;
66487;SDS011;53304;54.550;18.526;2023-07-13T06:28:59;7.60;;;2.20;;
66487;SDS011;53304;54.550;18.526;2023-07-13T06:31:27;8.18;;;2.28;;
66487;SDS011;53304;54.550;18.526;2023-07-13T06:33:55;4.38;;;1.80;;
66487;SDS011;53304;54.550;18.526;2023-07-13T06:36:20;5.40;;;2.10;;
66487;SDS011;53304;54.550;18.526;2023-07-13T06:38:45;6.80;;;1.95;;
66487;SDS011;53304;54.550;18.526;2023-07-13T06:41:13;5.35;;;1.75;;
66487;SDS011;53304;54.550;18.526;2023-07-13T06:43:39;5.18;;;1.92;;
66487;SDS011;53304;54.550;18.526;2023-07-13T06:46:04;4.00;;;1.50;;
66487;SDS011;53304;54.550;18.526;2023-07-13T06:48:35;4.20;;;1.70;;
66487;SDS011;53304;54.550;18.526;2023-07-13T06:51:03;5.90;;;1.85;;
66487;SDS011;53304;54.550;18.526;2023-07-13T06:53:32;8.07;;;1.85;;
66487;SDS011;53304;54.550;18.526;2023-07-13T06:55:57;6.53;;;1.80;;
66487;SDS011;53304;54.550;18.526;2023-07-13T06:58:27;4.15;;;1.65;;
66487;SDS011;53304;54.550;18.526;2023-07-13T07:00:53;5.47;;;1.50;;
66487;SDS011;53304;54.550;18.526;2023-07-13T07:03:22;2.58;;;1.20;;
66487;SDS011;53304;54.550;18.526;2023-07-13T07:05:48;2.63;;;1.48;;
66487;SDS011;53304;54.550;18.526;2023-07-13T07:08:17;6.38;;;1.70;;
66487;SDS011;53304;54.550;18.526;2023-07-13T07:10:42;3.50;;;1.60;;
66487;SDS011;53304;54.550;18.526;2023-07-13T07:13:12;3.75;;;1.30;;
66487;SDS011;53304;54.550;18.526;2023-07-13T07:15:40;4.05;;;1.38;;
66487;SDS011;53304;54.550;18.526;2023-07-13T07:18:08;2.22;;;1.38;;
66487;SDS011;53304;54.550;18.526;2023-07-13T07:20:33;4.05;;;1.50;;
66487;SDS011;53304;54.550;18.526;2023-07-13T07:23:04;4.90;;;1.55;;
66487;SDS011;53304;54.550;18.526;2023-07-13T07:25:31;2.63;;;1.45;;
66487;SDS011;53304;54.550;18.526;2023-07-13T07:28:01;3.92;;;1.35;;
66487;SDS011;53304;54.550;18.526;2023-07-13T07:30:26;3.45;;;1.48;;
66487;SDS011;53304;54.550;18.526;2023-07-13T07:32:52;2.78;;;1.30;;
66487;SDS011;53304;54.550;18.526;2023-07-13T07:35:22;3.80;;;1.63;;
66487;SDS011;53304;54.550;18.526;2023-07-13T07:37:50;4.28;;;1.60;;
66487;SDS011;53304;54.550;18.526;2023-07-13T07:40:20;3.25;;;1.23;;
66487;SDS011;53304;54.550;18.526;2023-07-13T07:42:46;2.50;;;1.17;;
66487;SDS011;53304;54.550;18.526;2023-07-13T07:45:11;2.78;;;1.40;;
66487;SDS011;53304;54.550;18.526;2023-07-13T07:47:39;3.72;;;1.40;;
66487;SDS011;53304;54.550;18.526;2023-07-13T07:50:05;5.10;;;1.75;;
66487;SDS011;53304;54.550;18.526;2023-07-13T07:52:33;2.80;;;1.35;;
66487;SDS011;53304;54.550;18.526;2023-07-13T07:54:59;3.63;;;1.50;;
66487;SDS011;53304;54.550;18.526;2023-07-13T07:57:27;3.55;;;1.50;;
66487;SDS011;53304;54.550;18.526;2023-07-13T07:59:52;2.83;;;1.20;;
66487;SDS011;53304;54.550;18.526;2023-07-13T08:02:22;5.35;;;1.58;;
66487;SDS011;53304;54.550;18.526;2023-07-13T08:04:49;2.05;;;1.30;;
66487;SDS011;53304;54.550;18.526;2023-07-13T08:07:16;3.15;;;1.15;;
66487;SDS011;53304;54.550;18.526;2023-07-13T08:09:42;6.13;;;1.63;;
66487;SDS011;53304;54.550;18.526;2023-07-13T08:12:07;3.15;;;1.13;;
66487;SDS011;53304;54.550;18.526;2023-07-13T08:14:33;4.40;;;1.40;;
66487;SDS011;53304;54.550;18.526;2023-07-13T08:16:58;2.50;;;1.30;;
66487;SDS011;53304;54.550;18.526;2023-07-13T08:19:24;4.93;;;1.33;;
66487;SDS011;53304;54.550;18.526;2023-07-13T08:21:49;2.60;;;1.35;;
66487;SDS011;53304;54.550;18.526;2023-07-13T08:24:15;1.85;;;1.25;;
66487;SDS011;53304;54.550;18.526;2023-07-13T08:26:45;2.80;;;1.45;;
66487;SDS011;53304;54.550;18.526;2023-07-13T08:29:11;3.17;;;1.30;;
66487;SDS011;53304;54.550;18.526;2023-07-13T08:31:39;2.83;;;1.20;;
66487;SDS011;53304;54.550;18.526;2023-07-13T08:34:04;3.00;;;1.55;;
66487;SDS011;53304;54.550;18.526;2023-07-13T08:36:30;3.33;;;1.20;;
66487;SDS011;53304;54.550;18.526;2023-07-13T08:38:57;4.43;;;1.45;;
66487;SDS011;53304;54.550;18.526;2023-07-13T08:41:25;5.18;;;1.45;;
66487;SDS011;53304;54.550;18.526;2023-07-13T08:43:51;3.80;;;1.30;;
66487;SDS011;53304;54.550;18.526;2023-07-13T08:48:59;2.88;;;1.30;;
66487;SDS011;53304;54.550;18.526;2023-07-13T08:54:42;4.97;;;1.23;;
66487;SDS011;53304;54.550;18.526;2023-07-13T08:57:19;2.03;;;1.10;;
66487;SDS011;53304;54.550;18.526;2023-07-13T08:59:45;3.35;;;1.42;;
66487;SDS011;53304;54.550;18.526;2023-07-13T09:04:54;4.57;;;1.40;;
66487;SDS011;53304;54.550;18.526;2023-07-13T09:07:26;3.70;;;1.20;;
66487;SDS011;53304;54.550;18.526;2023-07-13T09:15:28;2.30;;;1.10;;
66487;SDS011;53304;54.550;18.526;2023-07-13T09:18:08;4.10;;;1.33;;
66487;SDS011;53304;54.550;18.526;2023-07-13T09:20:50;3.45;;;1.30;;
66487;SDS011;53304;54.550;18.526;2023-07-13T09:23:22;2.75;;;1.40;;
66487;SDS011;53304;54.550;18.526;2023-07-13T09:25:49;4.63;;;1.20;;
66487;SDS011;53304;54.550;18.526;2023-07-13T09:28:22;2.08;;;1.20;;
66487;SDS011;53304;54.550;18.526;2023-07-13T09:33:37;3.97;;;1.35;;
66487;SDS011;53304;54.550;18.526;2023-07-13T09:36:18;1.67;;;1.00;;
66487;SDS011;53304;54.550;18.526;2023-07-13T09:46:36;2.38;;;1.08;;
66487;SDS011;53304;54.550;18.526;2023-07-13T09:49:01;1.85;;;1.13;;
66487;SDS011;53304;54.550;18.526;2023-07-13T09:51:27;2.95;;;1.20;;
66487;SDS011;53304;54.550;18.526;2023-07-13T09:53:53;2.88;;;1.05;;
66487;SDS011;53304;54.550;18.526;2023-07-13T09:56:23;3.88;;;1.13;;
66487;SDS011;53304;54.550;18.526;2023-07-13T09:58:51;1.88;;;1.20;;
66487;SDS011;53304;54.550;18.526;2023-07-13T10:01:30;1.90;;;0.90;;
66487;SDS011;53304;54.550;18.526;2023-07-13T10:03:57;2.38;;;1.40;;
66487;SDS011;53304;54.550;18.526;2023-07-13T10:06:25;2.60;;;1.20;;
66487;SDS011;53304;54.550;18.526;2023-07-13T10:08:55;2.22;;;1.20;;
66487;SDS011;53304;54.550;18.526;2023-07-13T10:11:28;1.52;;;1.08;;
66487;SDS011;53304;54.550;18.526;2023-07-13T10:14:00;1.27;;;1.00;;
66487;SDS011;53304;54.550;18.526;2023-07-13T10:16:33;2.38;;;1.20;;
66487;SDS011;53304;54.550;18.526;2023-07-13T10:19:13;2.30;;;1.10;;
66487;SDS011;53304;54.550;18.526;2023-07-13T10:21:50;2.47;;;1.10;;
66487;SDS011;53304;54.550;18.526;2023-07-13T10:24:24;2.50;;;1.08;;
66487;SDS011;53304;54.550;18.526;2023-07-13T10:27:12;3.67;;;1.23;;
66487;SDS011;53304;54.550;18.526;2023-07-13T10:32:40;1.85;;;1.00;;
66487;SDS011;53304;54.550;18.526;2023-07-13T10:35:10;1.90;;;1.17;;
66487;SDS011;53304;54.550;18.526;2023-07-13T10:37:51;3.13;;;1.10;;
66487;SDS011;53304;54.550;18.526;2023-07-13T10:40:21;1.33;;;0.90;;
66487;SDS011;53304;54.550;18.526;2023-07-13T10:42:50;2.80;;;1.10;;
66487;SDS011;53304;54.550;18.526;2023-07-13T10:45:21;3.25;;;1.20;;
66487;SDS011;53304;54.550;18.526;2023-07-13T10:47:50;2.90;;;1.30;;
66487;SDS011;53304;54.550;18.526;2023-07-13T10:50:24;3.58;;;1.00;;
66487;SDS011;53304;54.550;18.526;2023-07-13T10:52:53;2.08;;;1.00;;
66487;SDS011;53304;54.550;18.526;2023-07-13T10:55:33;2.58;;;1.30;;
66487;SDS011;53304;54.550;18.526;2023-07-13T10:58:14;3.00;;;1.10;;
66487;SDS011;53304;54.550;18.526;2023-07-13T11:00:56;2.25;;;1.20;;
66487;SDS011;53304;54.550;18.526;2023-07-13T11:03:22;3.50;;;1.10;;
66487;SDS011;53304;54.550;18.526;2023-07-13T11:06:03;3.05;;;1.13;;
66487;SDS011;53304;54.550;18.526;2023-07-13T11:21:27;3.42;;;1.20;;
66487;SDS011;53304;54.550;18.526;2023-07-13T11:24:03;1.90;;;1.00;;
66487;SDS011;53304;54.550;18.526;2023-07-13T11:31:42;3.33;;;1.30;;
66487;SDS011;53304;54.550;18.526;2023-07-13T11:34:13;3.80;;;1.17;;
66487;SDS011;53304;54.550;18.526;2023-07-13T11:36:43;5.43;;;1.27;;
66487;SDS011;53304;54.550;18.526;2023-07-13T11:39:15;3.88;;;1.05;;
66487;SDS011;53304;54.550;18.526;2023-07-13T11:41:49;4.88;;;1.33;;
66487;SDS011;53304;54.550;18.526;2023-07-13T11:44:18;5.20;;;1.30;;
66487;SDS011;53304;54.550;18.526;2023-07-13T11:46:46;2.28;;;1.02;;
66487;SDS011;53304;54.550;18.526;2023-07-13T11:49:19;2.65;;;1.20;;
66487;SDS011;53304;54.550;18.526;2023-07-13T11:51:50;2.33;;;1.20;;
66487;SDS011;53304;54.550;18.526;2023-07-13T11:56:53;2.30;;;1.10;;
66487;SDS011;53304;54.550;18.526;2023-07-13T11:59:25;1.30;;;1.02;;
66487;SDS011;53304;54.550;18.526;2023-07-13T12:01:51;1.95;;;1.10;;
66487;SDS011;53304;54.550;18.526;2023-07-13T12:07:07;2.88;;;1.17;;
66487;SDS011;53304;54.550;18.526;2023-07-13T12:09:40;3.53;;;1.10;;
66487;SDS011;53304;54.550;18.526;2023-07-13T12:12:28;3.83;;;1.02;;
66487;SDS011;53304;54.550;18.526;2023-07-13T12:14:54;1.90;;;0.95;;
66487;SDS011;53304;54.550;18.526;2023-07-13T12:17:26;1.90;;;0.90;;
66487;SDS011;53304;54.550;18.526;2023-07-13T12:19:54;3.38;;;1.00;;
66487;SDS011;53304;54.550;18.526;2023-07-13T12:22:19;3.35;;;1.15;;
66487;SDS011;53304;54.550;18.526;2023-07-13T12:24:46;3.47;;;1.40;;
66487;SDS011;53304;54.550;18.526;2023-07-13T12:30:04;2.58;;;1.00;;
66487;SDS011;53304;54.550;18.526;2023-07-13T12:32:31;3.03;;;1.10;;
66487;SDS011;53304;54.550;18.526;2023-07-13T12:35:16;6.00;;;1.10;;
66487;SDS011;53304;54.550;18.526;2023-07-13T12:37:44;4.45;;;1.10;;
66487;SDS011;53304;54.550;18.526;2023-07-13T12:40:18;1.80;;;0.90;;
66487;SDS011;53304;54.550;18.526;2023-07-13T12:42:47;3.17;;;1.00;;
66487;SDS011;53304;54.550;18.526;2023-07-13T12:47:47;3.75;;;1.20;;
66487;SDS011;53304;54.550;18.526;2023-07-13T12:52:43;2.47;;;0.95;;
66487;SDS011;53304;54.550;18.526;2023-07-13T12:55:13;1.77;;;1.00;;
66487;SDS011;53304;54.550;18.526;2023-07-13T12:57:47;4.57;;;1.10;;
66487;SDS011;53304;54.550;18.526;2023-07-13T13:02:50;4.50;;;1.17;;
66487;SDS011;53304;54.550;18.526;2023-07-13T13:05:16;7.90;;;1.50;;
66487;SDS011;53304;54.550;18.526;2023-07-13T13:07:41;8.13;;;1.10;;
66487;SDS011;53304;54.550;18.526;2023-07-13T13:10:13;4.18;;;1.10;;
66487;SDS011;53304;54.550;18.526;2023-07-13T13:15:07;3.85;;;1.17;;
66487;SDS011;53304;54.550;18.526;2023-07-13T13:17:33;2.30;;;1.00;;
66487;SDS011;53304;54.550;18.526;2023-07-13T13:19:59;3.35;;;1.17;;
66487;SDS011;53304;54.550;18.526;2023-07-13T13:22:27;3.22;;;1.10;;
66487;SDS011;53304;54.550;18.526;2023-07-13T13:24:52;3.65;;;1.20;;
66487;SDS011;53304;54.550;18.526;2023-07-13T13:27:21;2.05;;;0.95;;
66487;SDS011;53304;54.550;18.526;2023-07-13T13:29:49;3.05;;;1.10;;
66487;SDS011;53304;54.550;18.526;2023-07-13T13:32:19;1.90;;;1.10;;
66487;SDS011;53304;54.550;18.526;2023-07-13T13:34:44;4.07;;;1.08;;
66487;SDS011;53304;54.550;18.526;2023-07-13T13:37:19;3.30;;;1.23;;
66487;SDS011;53304;54.550;18.526;2023-07-13T13:39:46;5.68;;;1.42;;
66487;SDS011;53304;54.550;18.526;2023-07-13T13:42:14;2.92;;;1.20;;
66487;SDS011;53304;54.550;18.526;2023-07-13T13:44:40;1.88;;;1.08;;
66487;SDS011;53304;54.550;18.526;2023-07-13T13:47:21;2.38;;;1.10;;
66487;SDS011;53304;54.550;18.526;2023-07-13T13:49:53;2.53;;;1.02;;
66487;SDS011;53304;54.550;18.526;2023-07-13T13:52:20;1.73;;;0.90;;
66487;SDS011;53304;54.550;18.526;2023-07-13T13:54:46;4.57;;;1.30;;
66487;SDS011;53304;54.550;18.526;2023-07-13T13:57:11;3.28;;;1.20;;
66487;SDS011;53304;54.550;18.526;2023-07-13T13:59:37;5.65;;;1.40;;
66487;SDS011;53304;54.550;18.526;2023-07-13T14:02:18;3.22;;;1.20;;
66487;SDS011;53304;54.550;18.526;2023-07-13T14:04:47;2.60;;;1.17;;
66487;SDS011;53304;54.550;18.526;2023-07-13T14:07:17;3.58;;;1.30;;
66487;SDS011;53304;54.550;18.526;2023-07-13T14:09:51;1.88;;;1.00;;
66487;SDS011;53304;54.550;18.526;2023-07-13T14:12:26;3.83;;;1.20;;
66487;SDS011;53304;54.550;18.526;2023-07-13T14:14:55;5.13;;;1.20;;
66487;SDS011;53304;54.550;18.526;2023-07-13T14:17:25;2.40;;;1.10;;
66487;SDS011;53304;54.550;18.526;2023-07-13T14:19:53;3.38;;;1.20;;
66487;SDS011;53304;54.550;18.526;2023-07-13T14:22:25;2.97;;;1.00;;
66487;SDS011;53304;54.550;18.526;2023-07-13T14:24:54;1.13;;;1.02;;
66487;SDS011;53304;54.550;18.526;2023-07-13T14:27:24;2.85;;;1.05;;
66487;SDS011;53304;54.550;18.526;2023-07-13T14:29:52;2.35;;;1.00;;
66487;SDS011;53304;54.550;18.526;2023-07-13T14:32:20;2.08;;;1.00;;
66487;SDS011;53304;54.550;18.526;2023-07-13T14:34:48;1.63;;;0.98;;
66487;SDS011;53304;54.550;18.526;2023-07-13T14:37:14;1.63;;;1.13;;
66487;SDS011;53304;54.550;18.526;2023-07-13T14:39:45;1.58;;;0.93;;
66487;SDS011;53304;54.550;18.526;2023-07-13T14:42:12;1.38;;;0.80;;
66487;SDS011;53304;54.550;18.526;2023-07-13T14:44:38;1.88;;;0.98;;
66487;SDS011;53304;54.550;18.526;2023-07-13T14:47:06;3.00;;;1.25;;
66487;SDS011;53304;54.550;18.526;2023-07-13T14:49:39;3.50;;;1.15;;
66487;SDS011;53304;54.550;18.526;2023-07-13T14:52:09;2.85;;;1.08;;
66487;SDS011;53304;54.550;18.526;2023-07-13T14:54:37;1.45;;;1.05;;
66487;SDS011;53304;54.550;18.526;2023-07-13T14:57:18;5.38;;;1.17;;
66487;SDS011;53304;54.550;18.526;2023-07-13T14:59:44;1.92;;;1.00;;
66487;SDS011;53304;54.550;18.526;2023-07-13T15:04:58;2.88;;;1.10;;
66487;SDS011;53304;54.550;18.526;2023-07-13T15:07:25;1.88;;;0.82;;
66487;SDS011;53304;54.550;18.526;2023-07-13T15:09:51;1.92;;;0.95;;
66487;SDS011;53304;54.550;18.526;2023-07-13T15:12:17;2.42;;;0.93;;
66487;SDS011;53304;54.550;18.526;2023-07-13T15:14:45;2.35;;;1.10;;
66487;SDS011;53304;54.550;18.526;2023-07-13T15:17:31;3.95;;;1.10;;
66487;SDS011;53304;54.550;18.526;2023-07-13T15:20:02;2.83;;;0.80;;
66487;SDS011;53304;54.550;18.526;2023-07-13T15:22:30;2.15;;;1.00;;
66487;SDS011;53304;54.550;18.526;2023-07-13T15:24:56;5.55;;;1.00;;
66487;SDS011;53304;54.550;18.526;2023-07-13T15:27:25;1.73;;;0.90;;
66487;SDS011;53304;54.550;18.526;2023-07-13T15:29:53;2.75;;;1.20;;
66487;SDS011;53304;54.550;18.526;2023-07-13T15:32:20;2.33;;;0.90;;
66487;SDS011;53304;54.550;18.526;2023-07-13T15:34:48;2.83;;;1.10;;
66487;SDS011;53304;54.550;18.526;2023-07-13T15:37:18;2.47;;;0.90;;
66487;SDS011;53304;54.550;18.526;2023-07-13T15:39:45;3.80;;;1.10;;
66487;SDS011;53304;54.550;18.526;2023-07-13T15:42:18;2.97;;;1.05;;
66487;SDS011;53304;54.550;18.526;2023-07-13T15:44:47;2.10;;;0.80;;
66487;SDS011;53304;54.550;18.526;2023-07-13T15:47:14;2.25;;;0.90;;
66487;SDS011;53304;54.550;18.526;2023-07-13T15:49:45;2.25;;;0.88;;
66487;SDS011;53304;54.550;18.526;2023-07-13T15:52:16;1.75;;;0.80;;
66487;SDS011;53304;54.550;18.526;2023-07-13T15:54:50;3.25;;;0.88;;